Time;durP1;ratioP1;P1;durP2;ratioP2;P2;SDS_P1;SDS_P2;PMS_P1;PMS_P2;Temp;Humidity;BMP_temperature;BMP_pressure;BME280_temperature;BME280_humidity;BME280_pressure;Samples;Min_cycle;Max_cycle;Signal;HPM_P1;HPM_P2
2023/06/07 00:02:04;;;;;;;21.67;8.90;;;18.30;99.90;;;;;;7289952;19;20188;-81
2023/06/07 00:04:30;;;;;;;20.23;9.57;;;18.30;99.90;;;;;;7288184;19;20533;-80
2023/06/07 00:07:01;;;;;;;18.80;9.30;;;18.20;99.90;;;;;;7289202;19;20193;-80
2023/06/07 00:09:28;;;;;;;18.93;9.60;;;18.10;99.90;;;;;;7288752;19;20192;-80
2023/06/07 00:11:54;;;;;;;23.20;8.90;;;18.00;99.90;;;;;;7288514;19;20228;-80
2023/06/07 00:14:21;;;;;;;19.13;9.10;;;18.00;99.90;;;;;;7287181;19;20192;-80
2023/06/07 00:16:47;;;;;;;18.77;9.47;;;17.90;99.90;;;;;;7288405;19;20193;-80
2023/06/07 00:19:13;;;;;;;20.13;9.20;;;17.90;99.90;;;;;;7288835;19;20206;-80
2023/06/07 00:21:38;;;;;;;18.23;8.80;;;17.80;99.90;;;;;;7304425;19;20191;-80
2023/06/07 00:24:05;;;;;;;17.83;9.20;;;17.70;99.90;;;;;;7299706;19;20187;-80
2023/06/07 00:26:31;;;;;;;17.77;8.77;;;17.80;99.90;;;;;;7286795;19;20733;-80
2023/06/07 00:28:57;;;;;;;18.80;9.23;;;17.70;99.90;;;;;;7286245;19;20198;-79
2023/06/07 00:31:22;;;;;;;23.37;8.90;;;17.60;99.90;;;;;;7286731;19;20206;-79
2023/06/07 00:33:48;;;;;;;19.63;9.83;;;17.80;99.90;;;;;;7287366;19;20192;-80
2023/06/07 00:36:14;;;;;;;18.33;9.27;;;17.80;99.90;;;;;;7288085;19;20195;-79
2023/06/07 00:38:41;;;;;;;18.00;9.50;;;17.80;99.90;;;;;;7288090;19;20188;-80
2023/06/07 00:41:07;;;;;;;21.20;9.40;;;17.80;99.90;;;;;;7309860;19;20202;-80
2023/06/07 00:43:33;;;;;;;20.53;9.10;;;17.60;99.90;;;;;;7288578;19;20191;-80
2023/06/07 00:45:59;;;;;;;21.10;9.17;;;17.60;99.90;;;;;;7288927;19;20182;-80
2023/06/07 00:48:26;;;;;;;20.60;9.37;;;17.50;99.90;;;;;;7287863;19;20188;-80
2023/06/07 00:50:52;;;;;;;18.47;9.30;;;17.50;99.90;;;;;;7287094;19;20637;-80
2023/06/07 00:53:18;;;;;;;21.33;9.30;;;17.50;99.90;;;;;;7286905;19;20197;-80
2023/06/07 00:55:43;;;;;;;18.87;9.37;;;17.50;99.90;;;;;;7286956;19;20181;-80
2023/06/07 00:58:11;;;;;;;18.70;9.40;;;17.50;99.90;;;;;;7286995;19;20188;-80
2023/06/07 01:00:37;;;;;;;18.53;9.90;;;17.50;99.90;;;;;;7309334;19;20181;-80
2023/06/07 01:03:05;;;;;;;20.17;9.70;;;17.40;99.90;;;;;;7287540;19;20181;-80
2023/06/07 01:05:31;;;;;;;17.67;9.50;;;17.30;99.90;;;;;;7286956;19;20252;-80
2023/06/07 01:07:58;;;;;;;21.13;9.33;;;17.30;99.90;;;;;;7285068;19;20185;-80
2023/06/07 01:10:23;;;;;;;19.90;9.80;;;17.50;99.90;;;;;;7287131;19;20276;-80
2023/06/07 01:12:53;;;;;;;23.60;10.43;;;17.50;99.90;;;;;;7286101;19;20645;-80
2023/06/07 01:15:20;;;;;;;23.13;9.80;;;17.40;99.90;;;;;;7287201;19;20189;-79
2023/06/07 01:17:47;;;;;;;18.70;9.40;;;17.40;99.90;;;;;;7284934;19;20190;-80
2023/06/07 01:20:20;;;;;;;22.27;9.47;;;17.40;99.90;;;;;;7286592;19;20188;-81
2023/06/07 01:22:48;;;;;;;19.07;10.07;;;17.40;99.90;;;;;;7285608;19;20532;-80
2023/06/07 01:25:14;;;;;;;18.97;9.30;;;17.40;99.90;;;;;;7286997;19;20200;-81
2023/06/07 01:27:43;;;;;;;22.37;10.17;;;17.30;99.90;;;;;;7290255;19;20194;-80
2023/06/07 01:30:11;;;;;;;18.93;9.07;;;17.20;99.90;;;;;;7298835;19;20669;-79
2023/06/07 01:32:39;;;;;;;20.33;9.73;;;17.00;99.90;;;;;;7309610;19;20185;-80
2023/06/07 01:35:07;;;;;;;22.27;9.67;;;16.80;99.90;;;;;;7287299;19;20185;-80
2023/06/07 01:37:35;;;;;;;20.97;9.97;;;16.80;99.90;;;;;;7286094;19;20287;-80
2023/06/07 01:40:03;;;;;;;19.50;9.80;;;16.80;99.90;;;;;;7285731;19;20182;-80
2023/06/07 01:42:30;;;;;;;24.20;9.93;;;16.90;99.90;;;;;;7285636;19;20294;-80
2023/06/07 01:44:57;;;;;;;20.33;10.50;;;17.00;99.90;;;;;;7285405;19;20685;-80
2023/06/07 01:47:23;;;;;;;22.10;10.53;;;17.00;99.90;;;;;;7287058;19;20191;-80
2023/06/07 01:49:48;;;;;;;26.50;11.03;;;16.80;99.90;;;;;;7291501;19;20184;-80
2023/06/07 01:52:15;;;;;;;21.90;9.87;;;16.70;99.90;;;;;;7303820;19;20214;-80
2023/06/07 01:54:43;;;;;;;20.97;10.60;;;16.60;99.90;;;;;;7298499;19;20174;-80
2023/06/07 01:57:12;;;;;;;22.20;10.77;;;16.60;99.90;;;;;;7311996;19;20193;-79
2023/06/07 02:00:05;;;;;;;20.13;10.40;;;16.60;99.90;;;;;;7307357;19;20699;-81
2023/06/07 02:02:45;;;;;;;21.90;10.03;;;16.30;99.90;;;;;;7179832;19;2004613;-80
2023/06/07 02:05:18;;;;;;;21.17;9.97;;;16.30;99.90;;;;;;7286170;19;20257;-80
2023/06/07 02:07:49;;;;;;;20.83;10.90;;;16.40;99.90;;;;;;7286124;19;20537;-79
2023/06/07 02:10:20;;;;;;;23.17;11.13;;;16.50;99.90;;;;;;7284656;19;20185;-80
2023/06/07 02:12:51;;;;;;;19.93;10.87;;;16.60;99.90;;;;;;7285201;19;20184;-79
2023/06/07 02:15:17;;;;;;;20.90;11.17;;;16.70;99.90;;;;;;7284652;19;20181;-80
2023/06/07 02:17:57;;;;;;;20.40;10.70;;;16.60;99.90;;;;;;7285230;19;20191;-80
2023/06/07 02:20:27;;;;;;;22.60;11.70;;;16.40;99.90;;;;;;7285155;19;20188;-79
2023/06/07 02:22:55;;;;;;;20.70;10.60;;;16.40;99.90;;;;;;7285249;19;20195;-79
2023/06/07 02:25:22;;;;;;;21.47;11.17;;;16.30;99.90;;;;;;7285108;19;20537;-80
2023/06/07 02:27:49;;;;;;;22.63;11.00;;;16.30;99.90;;;;;;7284099;19;20723;-80
2023/06/07 02:30:15;;;;;;;21.00;10.10;;;16.40;99.90;;;;;;7284497;19;20520;-79
2023/06/07 02:32:45;;;;;;;22.70;11.13;;;16.30;99.90;;;;;;7285734;19;20188;-80
2023/06/07 02:35:11;;;;;;;22.37;10.50;;;16.20;99.90;;;;;;7284501;19;20189;-81
2023/06/07 02:37:37;;;;;;;25.17;10.77;;;16.20;99.90;;;;;;7307019;19;20272;-80
2023/06/07 02:40:09;;;;;;;20.50;11.13;;;16.30;99.90;;;;;;7283643;19;20264;-80
2023/06/07 02:42:36;;;;;;;20.87;10.53;;;16.20;99.90;;;;;;7284645;19;20184;-79
2023/06/07 02:45:05;;;;;;;23.93;11.20;;;16.30;99.90;;;;;;7283061;19;20204;-80
2023/06/07 02:47:31;;;;;;;20.73;10.83;;;16.20;99.90;;;;;;7281805;19;20188;-79
2023/06/07 02:49:58;;;;;;;25.47;10.43;;;16.20;99.90;;;;;;7282374;19;20269;-80
2023/06/07 02:52:25;;;;;;;20.13;10.57;;;16.10;99.90;;;;;;7281474;19;20185;-80
2023/06/07 02:54:51;;;;;;;25.30;11.80;;;15.90;99.90;;;;;;7282901;19;20248;-79
2023/06/07 02:57:17;;;;;;;26.77;11.60;;;15.80;99.90;;;;;;7283830;19;20291;-80
2023/06/07 02:59:43;;;;;;;19.80;10.83;;;16.00;99.90;;;;;;7283463;19;20181;-79
2023/06/07 03:02:11;;;;;;;20.07;11.20;;;16.00;99.90;;;;;;7280512;19;20655;-79
2023/06/07 03:04:40;;;;;;;25.73;11.97;;;15.90;99.90;;;;;;7306747;19;20185;-80
2023/06/07 03:07:07;;;;;;;23.07;12.53;;;15.90;99.90;;;;;;7284514;19;20193;-80
2023/06/07 03:09:38;;;;;;;24.80;11.37;;;16.00;99.90;;;;;;7285706;19;20285;-79
2023/06/07 03:12:05;;;;;;;30.13;11.50;;;16.00;99.90;;;;;;7289185;19;20196;-79
2023/06/07 03:14:38;;;;;;;22.50;11.03;;;15.90;99.90;;;;;;7290354;19;20193;-80
2023/06/07 03:17:04;;;;;;;27.20;11.80;;;15.80;99.90;;;;;;7288933;19;20182;-79
2023/06/07 03:19:33;;;;;;;26.70;11.63;;;15.70;99.90;;;;;;7290764;19;20545;-80
2023/06/07 03:22:00;;;;;;;22.27;11.80;;;15.80;99.90;;;;;;7289569;19;20185;-80
2023/06/07 03:24:28;;;;;;;25.83;12.20;;;15.80;99.90;;;;;;7288573;19;20201;-80
2023/06/07 03:26:57;;;;;;;22.33;11.90;;;15.80;99.90;;;;;;7288481;19;20664;-80
2023/06/07 03:29:24;;;;;;;19.43;11.40;;;15.90;99.90;;;;;;7288192;19;20252;-80
2023/06/07 03:31:51;;;;;;;19.37;11.00;;;16.00;99.90;;;;;;7288822;19;20212;-79
2023/06/07 03:34:18;;;;;;;25.03;11.57;;;15.80;99.90;;;;;;7289080;19;20756;-79
2023/06/07 03:36:46;;;;;;;22.13;11.57;;;15.60;99.90;;;;;;7289864;19;20193;-79
2023/06/07 03:39:15;;;;;;;25.63;12.10;;;15.60;99.90;;;;;;7289894;19;20248;-79
2023/06/07 03:41:41;;;;;;;24.50;12.13;;;15.60;99.90;;;;;;7289944;19;20279;-79
2023/06/07 03:44:09;;;;;;;24.63;12.03;;;15.80;99.90;;;;;;7305721;19;20661;-79
2023/06/07 03:46:37;;;;;;;24.20;11.73;;;15.80;99.90;;;;;;7311876;19;20188;-80
2023/06/07 03:49:03;;;;;;;24.50;11.90;;;15.70;99.90;;;;;;7288231;19;20234;-79
2023/06/07 03:51:32;;;;;;;23.73;12.43;;;15.80;99.90;;;;;;7288007;19;20182;-79
2023/06/07 03:53:59;;;;;;;25.27;11.97;;;15.60;99.90;;;;;;7289511;19;20206;-80
2023/06/07 03:56:27;;;;;;;23.37;11.97;;;15.70;99.90;;;;;;7287071;19;20228;-79
2023/06/07 03:58:54;;;;;;;24.83;11.80;;;15.80;99.90;;;;;;7289869;19;20252;-81
2023/06/07 04:01:25;;;;;;;25.23;11.63;;;15.80;99.90;;;;;;7288638;19;20195;-80
2023/06/07 04:03:52;;;;;;;25.93;11.87;;;15.80;99.90;;;;;;7288437;19;20247;-80
2023/06/07 04:06:24;;;;;;;24.57;11.80;;;15.80;99.90;;;;;;7287305;19;20193;-80
2023/06/07 04:08:56;;;;;;;22.60;10.93;;;15.90;99.90;;;;;;7289543;19;20188;-80
2023/06/07 04:11:26;;;;;;;21.80;11.73;;;15.80;99.90;;;;;;7289818;19;20244;-80
2023/06/07 04:13:52;;;;;;;25.40;11.23;;;15.80;99.90;;;;;;7291360;19;20187;-80
2023/06/07 04:16:22;;;;;;;22.80;11.77;;;15.80;99.90;;;;;;7291046;19;20189;-79
2023/06/07 04:18:49;;;;;;;21.43;11.37;;;15.80;99.90;;;;;;7292436;19;20188;-80
2023/06/07 04:21:16;;;;;;;22.77;11.13;;;15.90;99.90;;;;;;7289334;19;20197;-79
2023/06/07 04:23:44;;;;;;;23.03;11.90;;;16.00;99.90;;;;;;7288787;19;20196;-79
2023/06/07 04:26:18;;;;;;;22.73;11.53;;;16.10;99.90;;;;;;7289643;19;20205;-79
2023/06/07 04:28:45;;;;;;;23.13;11.37;;;16.20;99.90;;;;;;7288754;19;20664;-80
2023/06/07 04:31:14;;;;;;;22.40;11.70;;;16.20;99.90;;;;;;7287456;19;20185;-79
2023/06/07 04:33:41;;;;;;;21.53;12.33;;;16.10;99.90;;;;;;7290438;19;20283;-80
2023/06/07 04:36:10;;;;;;;22.53;11.13;;;16.10;99.90;;;;;;7290240;19;20205;-80
2023/06/07 04:38:41;;;;;;;23.13;11.70;;;16.00;99.90;;;;;;7289556;19;20242;-79
2023/06/07 04:41:13;;;;;;;29.87;12.77;;;16.00;99.90;;;;;;7300292;19;20250;-80
2023/06/07 04:43:48;;;;;;;25.13;12.10;;;16.10;99.90;;;;;;7288961;19;20284;-79
2023/06/07 04:46:18;;;;;;;22.50;11.53;;;16.20;99.90;;;;;;7288890;19;20607;-79
2023/06/07 04:48:44;;;;;;;22.07;11.83;;;16.20;99.90;;;;;;7284198;19;20185;-79
2023/06/07 04:51:13;;;;;;;25.10;12.70;;;16.10;99.90;;;;;;7287014;19;20256;-80
2023/06/07 04:53:44;;;;;;;21.53;11.13;;;16.20;99.90;;;;;;7286639;19;20212;-80
2023/06/07 04:56:15;;;;;;;21.47;11.73;;;16.40;99.90;;;;;;7287566;19;20249;-80
2023/06/07 04:58:42;;;;;;;23.20;11.67;;;16.60;99.90;;;;;;7288008;19;20188;-79
2023/06/07 05:01:13;;;;;;;21.53;10.53;;;16.90;99.90;;;;;;7287255;19;20217;-80
2023/06/07 05:03:42;;;;;;;23.50;11.37;;;17.40;99.90;;;;;;7294608;19;20211;-79
2023/06/07 05:06:08;;;;;;;18.93;10.80;;;18.00;99.90;;;;;;7310360;19;20188;-79
2023/06/07 05:08:34;;;;;;;20.80;10.40;;;18.90;99.90;;;;;;7288909;19;20192;-80
2023/06/07 05:11:00;;;;;;;21.37;10.13;;;19.60;99.90;;;;;;7287179;19;20217;-81
2023/06/07 05:13:26;;;;;;;21.97;10.67;;;19.80;99.90;;;;;;7287545;19;20215;-81
2023/06/07 05:15:54;;;;;;;22.20;10.23;;;20.40;99.90;;;;;;7287696;19;20184;-81
2023/06/07 05:18:21;;;;;;;18.87;10.03;;;20.40;99.90;;;;;;7285488;19;20262;-81
2023/06/07 05:20:49;;;;;;;21.83;10.30;;;21.10;99.90;;;;;;7286450;19;20216;-81
2023/06/07 05:23:19;;;;;;;20.03;10.80;;;20.70;99.90;;;;;;7286285;19;20184;-82
2023/06/07 05:25:49;;;;;;;19.93;10.10;;;21.00;99.90;;;;;;7286370;19;20223;-82
2023/06/07 05:28:15;;;;;;;19.43;9.93;;;21.10;99.90;;;;;;7286076;19;20202;-81
2023/06/07 05:30:46;;;;;;;22.50;10.80;;;21.40;99.90;;;;;;7284347;19;20185;-80
2023/06/07 05:33:12;;;;;;;18.93;10.93;;;21.40;99.90;;;;;;7282039;19;20205;-82
2023/06/07 05:35:37;;;;;;;19.67;10.63;;;22.00;99.90;;;;;;7309280;19;20271;-81
2023/06/07 05:38:04;;;;;;;19.30;10.17;;;22.20;99.90;;;;;;7286372;19;20266;-82
2023/06/07 05:40:30;;;;;;;18.93;10.37;;;22.40;99.90;;;;;;7284715;19;20201;-83
2023/06/07 05:42:56;;;;;;;18.93;10.37;;;21.90;99.90;;;;;;7284604;19;20226;-82
2023/06/07 05:45:24;;;;;;;22.40;10.27;;;22.30;99.90;;;;;;7284976;19;20189;-82
2023/06/07 05:47:50;;;;;;;19.73;9.67;;;22.40;99.90;;;;;;7284523;19;20196;-81
2023/06/07 05:50:19;;;;;;;21.90;10.50;;;22.80;99.90;;;;;;7285815;19;20196;-82
2023/06/07 05:52:45;;;;;;;17.00;9.70;;;22.80;99.90;;;;;;7286042;19;20375;-80
2023/06/07 05:55:11;;;;;;;19.47;10.73;;;23.30;99.90;;;;;;7284822;19;20193;-81
2023/06/07 05:57:37;;;;;;;19.47;9.80;;;24.50;99.90;;;;;;7307446;19;20176;-82
2023/06/07 06:00:11;;;;;;;19.27;9.20;;;24.70;99.90;;;;;;7286867;19;20197;-81
2023/06/07 06:02:42;;;;;;;18.93;9.63;;;23.50;99.90;;;;;;7269546;19;20691;-82
2023/06/07 06:05:08;;;;;;;18.83;9.53;;;23.60;99.90;;;;;;7305705;19;20671;-81
2023/06/07 06:07:35;;;;;;;20.73;9.87;;;24.10;99.90;;;;;;7296079;19;20272;-81
2023/06/07 06:10:01;;;;;;;17.40;9.60;;;24.80;99.90;;;;;;7286916;19;20311;-81
2023/06/07 06:12:26;;;;;;;17.80;9.73;;;25.10;99.90;;;;;;7285590;19;20639;-81
2023/06/07 06:14:52;;;;;;;17.97;9.10;;;24.60;99.90;;;;;;7284732;19;20193;-80
2023/06/07 06:17:18;;;;;;;18.17;9.53;;;24.60;99.90;;;;;;7284637;19;20185;-81
2023/06/07 06:19:43;;;;;;;16.00;8.97;;;24.60;99.90;;;;;;7277082;19;20228;-79
2023/06/07 06:22:09;;;;;;;18.63;10.17;;;24.90;99.90;;;;;;7292218;19;20185;-78
2023/06/07 06:24:35;;;;;;;19.77;10.60;;;24.70;99.90;;;;;;7304928;19;20199;-78
2023/06/07 06:27:01;;;;;;;20.97;10.87;;;23.40;99.90;;;;;;7284073;19;20573;-77
2023/06/07 06:29:26;;;;;;;19.07;10.50;;;22.30;99.90;;;;;;7284159;19;20189;-78
2023/06/07 06:31:52;;;;;;;17.87;10.07;;;21.80;99.90;;;;;;7283414;19;20585;-77
2023/06/07 06:34:18;;;;;;;20.37;10.80;;;21.90;99.90;;;;;;7283031;19;20192;-78
2023/06/07 06:36:46;;;;;;;19.27;10.63;;;22.50;99.90;;;;;;7283433;19;20551;-77
2023/06/07 06:39:14;;;;;;;20.30;10.63;;;22.40;99.90;;;;;;7283401;19;20662;-78
2023/06/07 06:41:40;;;;;;;21.30;10.63;;;22.10;99.90;;;;;;7290972;19;20573;-78
2023/06/07 06:44:08;;;;;;;19.27;10.40;;;22.10;99.90;;;;;;7302799;19;20209;-79
2023/06/07 06:46:34;;;;;;;19.97;11.17;;;21.90;99.90;;;;;;7295249;19;20184;-78
2023/06/07 06:49:00;;;;;;;20.63;10.13;;;21.90;99.90;;;;;;7282805;19;20969;-78
2023/06/07 06:51:26;;;;;;;21.63;10.80;;;22.70;99.90;;;;;;7283431;19;20202;-78
2023/06/07 06:53:51;;;;;;;20.97;10.20;;;23.00;99.90;;;;;;7282692;19;20653;-78
2023/06/07 06:56:17;;;;;;;20.60;10.43;;;23.60;99.90;;;;;;7284219;19;20192;-78
2023/06/07 06:58:43;;;;;;;24.10;10.13;;;23.90;99.90;;;;;;7284104;19;20189;-78
2023/06/07 07:01:13;;;;;;;23.63;10.77;;;24.30;99.90;;;;;;7298840;19;20185;-78
2023/06/07 07:03:40;;;;;;;17.63;10.07;;;24.70;99.90;;;;;;7294881;19;20199;-78
2023/06/07 07:06:07;;;;;;;19.45;10.02;;;25.30;99.90;;;;;;7305732;19;20177;-78
2023/06/07 07:08:34;;;;;;;21.40;10.20;;;25.40;99.90;;;;;;7282406;19;20185;-78
2023/06/07 07:11:00;;;;;;;17.95;9.93;;;25.80;99.90;;;;;;7283157;19;20186;-78
2023/06/07 07:13:26;;;;;;;17.35;9.65;;;26.10;99.90;;;;;;7282862;19;20185;-78
2023/06/07 07:15:51;;;;;;;17.83;9.88;;;27.30;99.90;;;;;;7283276;19;20196;-78
2023/06/07 07:18:17;;;;;;;15.45;8.77;;;28.30;99.90;;;;;;7283230;19;20669;-78
2023/06/07 07:20:43;;;;;;;23.75;10.80;;;28.80;99.90;;;;;;7281758;19;20789;-79
2023/06/07 07:23:09;;;;;;;17.15;9.93;;;28.10;99.90;;;;;;7296528;19;20215;-78
2023/06/07 07:25:34;;;;;;;18.30;10.43;;;27.80;99.90;;;;;;7297769;19;20371;-79
2023/06/07 07:28:00;;;;;;;17.60;10.60;;;28.00;99.90;;;;;;7282539;19;20260;-77
2023/06/07 07:30:26;;;;;;;20.77;10.75;;;27.90;99.90;;;;;;7282687;19;20193;-77
2023/06/07 07:32:53;;;;;;;17.67;10.48;;;27.10;99.90;;;;;;7282656;19;20571;-78
2023/06/07 07:35:19;;;;;;;24.45;10.98;;;26.50;99.90;;;;;;7281652;19;20209;-81
2023/06/07 07:37:45;;;;;;;22.85;10.85;;;26.20;99.90;;;;;;7279283;19;20726;-80
2023/06/07 07:40:12;;;;;;;19.50;10.70;;;26.10;99.90;;;;;;7306898;19;20258;-80
2023/06/07 07:42:38;;;;;;;20.48;10.75;;;25.70;99.90;;;;;;7284863;19;20192;-81
2023/06/07 07:45:05;;;;;;;22.40;10.55;;;26.40;99.90;;;;;;7283786;19;20185;-81
2023/06/07 07:47:31;;;;;;;18.23;10.70;;;28.20;99.90;;;;;;7282831;19;20238;-80
2023/06/07 07:49:56;;;;;;;20.92;10.75;;;28.70;99.90;;;;;;7282240;19;20199;-80
2023/06/07 07:52:24;;;;;;;21.17;10.98;;;28.60;99.90;;;;;;7283257;19;20189;-81
2023/06/07 07:54:50;;;;;;;22.33;11.50;;;28.00;99.90;;;;;;7282963;19;20194;-81
2023/06/07 07:57:16;;;;;;;22.50;11.07;;;28.60;99.90;;;;;;7289070;19;20214;-82
2023/06/07 07:59:41;;;;;;;20.98;10.50;;;28.90;99.90;;;;;;7312319;19;20557;-80
2023/06/07 08:02:07;;;;;;;17.92;9.68;;;30.20;99.90;;;;;;7299898;19;20188;-81
2023/06/07 08:04:33;;;;;;;18.58;10.55;;;31.30;99.90;;;;;;7289661;19;20190;-81
2023/06/07 08:06:58;;;;;;;20.58;9.82;;;33.40;99.70;;;;;;7290519;19;20200;-82
2023/06/07 08:09:24;;;;;;;19.17;10.10;;;33.50;95.30;;;;;;7288501;19;20192;-81
2023/06/07 08:11:49;;;;;;;16.80;9.43;;;33.00;94.30;;;;;;7290870;19;20200;-81
2023/06/07 08:14:15;;;;;;;18.17;9.93;;;31.50;95.20;;;;;;7290110;19;20279;-81
2023/06/07 08:16:41;;;;;;;19.90;10.30;;;31.50;96.10;;;;;;7310412;19;20196;-81
2023/06/07 08:19:07;;;;;;;17.88;10.45;;;31.40;95.70;;;;;;7290241;19;20193;-81
2023/06/07 08:21:34;;;;;;;18.75;10.55;;;31.80;95.30;;;;;;7289700;19;20535;-81
2023/06/07 08:23:59;;;;;;;20.60;10.10;;;33.20;93.60;;;;;;7289454;19;20268;-82
2023/06/07 08:26:25;;;;;;;19.20;11.05;;;33.20;91.90;;;;;;7288011;19;20653;-80
2023/06/07 08:28:51;;;;;;;16.23;10.70;;;32.60;91.90;;;;;;7288641;19;20213;-80
2023/06/07 08:31:17;;;;;;;21.05;10.77;;;32.10;92.00;;;;;;7287736;19;20268;-81
2023/06/07 08:33:43;;;;;;;20.20;10.80;;;31.30;92.80;;;;;;7294718;19;20209;-81
2023/06/07 08:36:09;;;;;;;20.25;10.98;;;30.60;93.80;;;;;;7311010;19;20192;-81
2023/06/07 08:38:39;;;;;;;21.67;11.23;;;29.90;94.80;;;;;;7288152;19;20197;-80
2023/06/07 08:41:04;;;;;;;21.13;11.05;;;29.80;94.90;;;;;;7289429;19;20196;-80
2023/06/07 08:43:30;;;;;;;23.42;11.32;;;30.60;94.80;;;;;;7287554;19;20193;-82
2023/06/07 08:45:56;;;;;;;19.70;11.02;;;31.20;94.10;;;;;;7288556;19;20200;-81
2023/06/07 08:48:24;;;;;;;24.33;10.55;;;31.70;93.10;;;;;;7287555;19;20197;-81
2023/06/07 08:50:53;;;;;;;21.45;10.57;;;31.50;93.50;;;;;;7287294;19;20181;-82
2023/06/07 08:53:46;;;;;;;20.73;11.05;;;31.90;92.80;;;;;;7289288;19;20208;-81
2023/06/07 08:56:13;;;;;;;20.33;10.68;;;32.60;91.80;;;;;;7284853;19;20185;-82
2023/06/07 08:58:39;;;;;;;19.38;10.68;;;32.20;91.30;;;;;;7305241;19;20266;-82
2023/06/07 09:01:05;;;;;;;23.25;11.10;;;31.90;91.20;;;;;;7288396;19;20292;-82
2023/06/07 09:03:31;;;;;;;18.70;11.48;;;32.20;91.10;;;;;;7286270;19;20260;-82
2023/06/07 09:05:57;;;;;;;26.38;12.00;;;32.20;90.30;;;;;;7285627;19;20653;-82
2023/06/07 09:08:22;;;;;;;20.13;11.38;;;32.60;90.80;;;;;;7284449;19;20565;-82
2023/06/07 09:10:48;;;;;;;22.15;11.07;;;33.20;89.60;;;;;;7288629;19;20189;-83
2023/06/07 09:13:20;;;;;;;22.55;11.43;;;32.90;87.80;;;;;;7288495;19;20656;-83
2023/06/07 09:15:49;;;;;;;23.15;12.10;;;32.80;86.90;;;;;;7285566;19;20561;-83
2023/06/07 09:18:15;;;;;;;24.00;11.98;;;32.40;89.70;;;;;;7285383;19;20565;-83
2023/06/07 09:20:41;;;;;;;21.67;11.80;;;32.00;89.90;;;;;;7309865;19;20196;-83
2023/06/07 09:23:11;;;;;;;25.73;12.90;;;31.50;90.20;;;;;;7286559;19;20189;-83
2023/06/07 09:25:37;;;;;;;22.17;11.82;;;31.90;90.30;;;;;;7287145;19;20272;-83
2023/06/07 09:28:07;;;;;;;19.42;11.82;;;32.20;89.60;;;;;;7286871;19;20197;-83
2023/06/07 09:30:33;;;;;;;22.38;12.68;;;32.00;89.60;;;;;;7286720;19;20186;-82
2023/06/07 09:32:59;;;;;;;21.55;12.25;;;31.10;89.70;;;;;;7286424;19;20196;-83
2023/06/07 09:35:25;;;;;;;19.83;12.05;;;30.50;91.30;;;;;;7285920;19;20648;-83
2023/06/07 09:37:54;;;;;;;17.83;11.63;;;30.70;91.60;;;;;;7287458;19;20196;-82
2023/06/07 09:40:21;;;;;;;27.25;11.73;;;31.00;91.00;;;;;;7285391;19;20188;-83
2023/06/07 09:42:59;;;;;;;21.17;11.95;;;31.60;91.10;;;;;;7286523;19;20209;-81
2023/06/07 09:45:26;;;;;;;21.60;12.35;;;31.40;90.50;;;;;;7285412;19;20192;-83
2023/06/07 09:48:06;;;;;;;18.38;11.25;;;30.60;91.60;;;;;;7286555;19;20188;-83
2023/06/07 09:50:31;;;;;;;20.58;12.38;;;31.60;91.20;;;;;;7286038;19;20185;-83
2023/06/07 09:52:58;;;;;;;20.40;12.27;;;31.50;90.60;;;;;;7286702;19;20185;-83
2023/06/07 09:55:29;;;;;;;22.20;11.52;;;31.00;90.80;;;;;;7286255;19;20196;-82
2023/06/07 09:57:57;;;;;;;21.35;12.52;;;31.30;91.60;;;;;;7287077;19;20181;-83
2023/06/07 10:00:25;;;;;;;21.50;13.23;;;31.50;90.70;;;;;;7288168;19;20192;-83
2023/06/07 10:02:51;;;;;;;18.48;11.95;;;31.20;90.60;;;;;;7286809;19;20644;-81
2023/06/07 10:05:17;;;;;;;21.38;13.10;;;31.00;90.90;;;;;;7287701;19;20184;-81
2023/06/07 10:07:48;;;;;;;25.75;12.43;;;30.70;91.20;;;;;;7293644;19;20193;-81
2023/06/07 10:10:17;;;;;;;18.77;11.30;;;30.90;92.50;;;;;;7291702;19;20267;-81
2023/06/07 10:12:46;;;;;;;19.00;11.57;;;31.50;91.10;;;;;;7300894;19;20253;-81
2023/06/07 10:15:15;;;;;;;20.45;11.43;;;32.30;90.60;;;;;;7308439;19;20189;-82
2023/06/07 10:17:51;;;;;;;23.55;12.85;;;32.50;90.70;;;;;;7284191;19;20189;-82
2023/06/07 10:20:30;;;;;;;18.27;11.73;;;33.30;90.10;;;;;;7264737;19;20192;-81
2023/06/07 10:23:02;;;;;;;19.73;12.10;;;32.60;88.40;;;;;;7285514;19;20188;-82
2023/06/07 10:25:45;;;;;;;20.23;11.30;;;32.50;87.90;;;;;;7284121;19;20206;-82
2023/06/07 10:28:18;;;;;;;21.20;11.60;;;32.80;88.80;;;;;;7284976;19;20192;-82
2023/06/07 10:30:55;;;;;;;20.33;11.57;;;32.40;87.60;;;;;;7264887;19;20181;-81
2023/06/07 10:33:25;;;;;;;18.55;10.85;;;32.10;89.10;;;;;;7286693;19;20205;-81
2023/06/07 10:35:51;;;;;;;18.27;11.00;;;32.00;89.80;;;;;;7285716;19;20640;-81
2023/06/07 10:38:18;;;;;;;20.35;11.35;;;32.70;87.00;;;;;;7284322;19;20724;-81
2023/06/07 10:40:44;;;;;;;19.70;12.68;;;32.60;85.90;;;;;;7288349;19;20181;-81
2023/06/07 10:43:10;;;;;;;20.08;11.05;;;32.90;84.80;;;;;;7308067;19;20180;-80
2023/06/07 10:45:36;;;;;;;16.90;10.57;;;33.20;86.60;;;;;;7285126;19;20194;-81
2023/06/07 10:48:35;;;;;;;18.17;10.20;;;33.30;86.70;;;;;;7285302;19;21165;-81
2023/06/07 10:51:01;;;;;;;20.90;10.73;;;33.90;85.00;;;;;;7181969;19;2006419;-81
2023/06/07 10:53:48;;;;;;;16.95;9.80;;;33.70;84.60;;;;;;7285061;19;20185;-81
2023/06/07 10:56:26;;;;;;;19.02;10.07;;;33.90;81.80;;;;;;7263913;19;20188;-81
2023/06/07 10:58:52;;;;;;;18.48;9.25;;;33.90;80.20;;;;;;7284086;19;20193;-80
2023/06/07 11:01:25;;;;;;;18.27;9.57;;;33.30;83.30;;;;;;7283909;19;20193;-81
2023/06/07 11:03:51;;;;;;;17.98;10.13;;;33.20;82.70;;;;;;7284250;19;20185;-81
2023/06/07 11:06:17;;;;;;;14.57;9.48;;;33.40;82.00;;;;;;7283358;19;20181;-81
2023/06/07 11:08:43;;;;;;;14.05;8.63;;;33.60;83.80;;;;;;7296296;19;20177;-81
2023/06/07 11:11:54;;;;;;;14.77;7.97;;;33.60;82.70;;;;;;7301844;19;20224;-81
2023/06/07 11:14:20;;;;;;;17.40;8.63;;;35.20;83.30;;;;;;7078221;19;2004563;-81
2023/06/07 11:16:46;;;;;;;14.93;8.50;;;35.90;77.00;;;;;;7283100;19;20285;-81
2023/06/07 11:19:16;;;;;;;17.23;8.68;;;34.80;77.20;;;;;;7303707;19;20176;-82
2023/06/07 11:21:57;;;;;;;14.38;8.00;;;34.30;77.00;;;;;;7284762;19;20181;-81
2023/06/07 11:24:24;;;;;;;18.38;8.57;;;34.00;78.20;;;;;;7181928;19;2004514;-82
2023/06/07 11:26:50;;;;;;;14.80;7.05;;;34.40;78.40;;;;;;7282053;19;20188;-81
2023/06/07 11:29:17;;;;;;;16.52;8.27;;;35.60;75.40;;;;;;7283326;19;20613;-81
2023/06/07 11:31:57;;;;;;;15.52;8.43;;;35.10;76.50;;;;;;7304560;19;20201;-81
2023/06/07 11:34:25;;;;;;;15.77;8.60;;;34.50;76.00;;;;;;7292218;19;20197;-80
2023/06/07 11:36:52;;;;;;;19.15;8.13;;;34.50;75.70;;;;;;7291212;19;20189;-80
2023/06/07 11:39:20;;;;;;;15.15;6.75;;;34.60;77.10;;;;;;7291978;19;20202;-81
2023/06/07 11:41:46;;;;;;;16.58;8.27;;;35.60;75.60;;;;;;7291355;19;20649;-80
2023/06/07 11:44:12;;;;;;;16.25;7.85;;;35.30;75.20;;;;;;7310582;19;20196;-81
2023/06/07 11:46:38;;;;;;;16.95;7.25;;;35.40;75.60;;;;;;7290533;19;20280;-81
2023/06/07 11:49:09;;;;;;;19.45;7.20;;;35.30;75.20;;;;;;7289544;19;20225;-81
2023/06/07 11:51:35;;;;;;;18.35;7.72;;;34.80;73.20;;;;;;7289406;19;20218;-81
2023/06/07 11:54:01;;;;;;;17.17;7.03;;;34.40;77.10;;;;;;7290645;19;20189;-81
2023/06/07 11:56:27;;;;;;;15.15;7.47;;;34.70;76.40;;;;;;7289608;19;20199;-81
2023/06/07 11:58:54;;;;;;;13.45;7.05;;;35.40;73.80;;;;;;7288328;19;20222;-82
2023/06/07 12:01:20;;;;;;;14.13;6.68;;;35.60;72.50;;;;;;7289441;19;20205;-81
2023/06/07 12:03:47;;;;;;;14.48;6.82;;;34.60;74.90;;;;;;7288931;19;20613;-80
2023/06/07 12:06:13;;;;;;;13.57;6.95;;;33.40;74.10;;;;;;7307804;19;20698;-80
2023/06/07 12:08:38;;;;;;;14.65;6.93;;;32.60;75.60;;;;;;7300745;19;20189;-80
2023/06/07 12:11:04;;;;;;;12.88;7.40;;;32.30;76.30;;;;;;7289295;19;20761;-78
2023/06/07 12:13:40;;;;;;;14.48;7.82;;;30.90;77.60;;;;;;7289920;19;20196;-78
2023/06/07 12:16:07;;;;;;;14.95;8.00;;;30.10;80.20;;;;;;7288051;19;20189;-78
2023/06/07 12:18:35;;;;;;;16.73;7.57;;;30.00;82.30;;;;;;7287051;19;20205;-79
2023/06/07 12:21:08;;;;;;;14.68;7.50;;;29.80;83.60;;;;;;7288599;19;20218;-79
2023/06/07 12:23:50;;;;;;;15.52;8.25;;;29.10;85.20;;;;;;7289193;19;20652;-79
2023/06/07 12:26:19;;;;;;;16.40;7.50;;;28.40;87.80;;;;;;7265932;19;20247;-78
2023/06/07 12:28:47;;;;;;;13.80;7.20;;;27.70;88.50;;;;;;7287909;19;20260;-77
2023/06/07 12:31:15;;;;;;;16.20;6.53;;;27.20;90.20;;;;;;7302136;19;20192;-77
2023/06/07 12:33:54;;;;;;;13.57;6.13;;;27.20;91.30;;;;;;7309849;19;20185;-79
2023/06/07 12:36:27;;;;;;;12.77;6.07;;;27.10;89.90;;;;;;7185088;19;2005063;-78